createdAt,value
2023-04-05T00:00:32.452Z,8.27
2023-04-05T00:03:02.210Z,8.37
2023-04-05T00:05:34.262Z,8.77
2023-04-05T00:08:01.811Z,9.07
2023-04-05T00:10:29.917Z,9.93
2023-04-05T00:12:57.653Z,8.63
2023-04-05T00:15:25.363Z,8.00
2023-04-05T00:17:54.196Z,9.73
2023-04-05T00:20:21.134Z,9.53
2023-04-05T00:22:50.498Z,9.80
2023-04-05T00:25:18.646Z,10.77
2023-04-05T00:27:45.640Z,9.10
2023-04-05T00:30:12.942Z,9.47
2023-04-05T00:32:39.727Z,10.03
2023-04-05T00:35:07.338Z,10.13
2023-04-05T00:37:34.484Z,10.57
2023-04-05T00:40:01.745Z,9.57
2023-04-05T00:42:28.556Z,9.60
2023-04-05T00:44:55.657Z,9.80
2023-04-05T00:47:22.715Z,9.43
2023-04-05T00:49:50.670Z,10.50
2023-04-05T00:52:19.823Z,9.50
2023-04-05T00:54:46.656Z,10.97
2023-04-05T00:57:13.929Z,10.70
2023-04-05T00:59:41.065Z,10.13
2023-04-05T01:02:24.522Z,10.30
2023-04-05T01:05:06.289Z,10.30
2023-04-05T01:07:42.815Z,11.43
2023-04-05T01:10:12.330Z,10.33
2023-04-05T01:12:39.578Z,10.93
2023-04-05T01:15:06.967Z,10.60
2023-04-05T01:17:39.122Z,10.57
2023-04-05T01:20:10.322Z,10.77
2023-04-05T01:23:08.516Z,12.33
2023-04-05T01:25:47.337Z,12.10
2023-04-05T01:28:45.831Z,11.83
2023-04-05T01:31:32.902Z,11.60
2023-04-05T01:34:17.102Z,12.13
2023-04-05T01:36:53.239Z,11.87
2023-04-05T01:39:20.822Z,11.33
2023-04-05T01:41:47.834Z,12.03
2023-04-05T01:44:14.862Z,11.23
2023-04-05T01:46:41.928Z,11.30
2023-04-05T01:49:08.797Z,11.23
2023-04-05T01:51:35.755Z,11.07
2023-04-05T01:54:02.511Z,12.30
2023-04-05T01:56:29.314Z,11.77
2023-04-05T01:58:56.062Z,12.10
2023-04-05T02:01:22.816Z,11.00
2023-04-05T02:03:49.656Z,11.83
2023-04-05T02:06:16.662Z,11.60
2023-04-05T02:08:43.494Z,12.10
2023-04-05T02:11:11.204Z,12.90
2023-04-05T02:13:38.013Z,11.73
2023-04-05T02:16:04.811Z,12.50
2023-04-05T02:18:32.042Z,13.23
2023-04-05T02:21:06.796Z,12.57
2023-04-05T02:23:34.083Z,11.57
2023-04-05T02:26:01.439Z,13.00
2023-04-05T02:28:28.503Z,13.87
2023-04-05T02:30:56.102Z,13.97
2023-04-05T02:33:23.370Z,14.57
2023-04-05T02:35:52.091Z,13.43
2023-04-05T02:38:18.912Z,13.93
2023-04-05T02:40:49.493Z,14.00
2023-04-05T02:43:16.574Z,14.33
2023-04-05T02:45:45.558Z,13.23
2023-04-05T02:48:13.626Z,13.67
2023-04-05T02:50:40.984Z,13.37
2023-04-05T02:53:08.449Z,14.43
2023-04-05T02:55:35.229Z,12.30
2023-04-05T02:58:01.976Z,13.47
2023-04-05T03:00:29.013Z,12.83
2023-04-05T03:02:56.710Z,13.73
2023-04-05T03:05:23.653Z,13.10
2023-04-05T03:07:52.046Z,12.73
2023-04-05T03:10:22.497Z,12.07
2023-04-05T03:12:51.625Z,12.53
2023-04-05T03:15:18.479Z,12.53
2023-04-05T03:17:45.904Z,12.73
2023-04-05T03:20:13.294Z,12.83
2023-04-05T03:22:40.994Z,13.00
2023-04-05T03:25:07.845Z,13.77
2023-04-05T03:27:36.776Z,13.23
2023-04-05T03:30:03.965Z,11.73
2023-04-05T03:32:30.952Z,11.90
2023-04-05T03:34:57.752Z,11.23
2023-04-05T03:37:24.501Z,11.73
2023-04-05T03:39:51.275Z,11.27
2023-04-05T03:42:18.171Z,12.27
2023-04-05T03:44:45.032Z,11.73
2023-04-05T03:47:13.191Z,10.70
2023-04-05T03:49:39.960Z,11.27
2023-04-05T03:52:07.156Z,11.33
2023-04-05T03:54:33.924Z,11.37
2023-04-05T03:57:01.196Z,11.00
2023-04-05T03:59:28.601Z,10.40
2023-04-05T04:01:55.957Z,9.77
2023-04-05T04:04:22.863Z,10.57
2023-04-05T04:06:49.632Z,9.97
2023-04-05T04:09:16.587Z,10.73
2023-04-05T04:11:43.336Z,10.23
2023-04-05T04:14:10.045Z,10.53
2023-04-05T04:16:36.912Z,10.53
2023-04-05T04:19:03.646Z,10.43
2023-04-05T04:21:32.661Z,10.60
2023-04-05T04:24:00.900Z,9.80
2023-04-05T04:26:29.037Z,10.40
2023-04-05T04:28:56.425Z,10.20
2023-04-05T04:31:23.296Z,10.27
2023-04-05T04:33:50.995Z,10.70
2023-04-05T04:36:18.220Z,10.20
2023-04-05T04:38:45.967Z,9.43
2023-04-05T04:41:14.130Z,9.77
2023-04-05T04:43:44.128Z,9.90
2023-04-05T04:46:19.031Z,9.47
2023-04-05T04:48:47.240Z,10.37
2023-04-05T04:51:13.991Z,10.40
2023-04-05T04:53:40.718Z,10.37
2023-04-05T04:56:08.796Z,10.10
2023-04-05T04:58:35.809Z,10.77
2023-04-05T05:01:08.916Z,10.27
2023-04-05T05:03:37.619Z,11.30
2023-04-05T05:06:04.826Z,10.13
2023-04-05T05:08:31.629Z,10.77
2023-04-05T05:11:01.477Z,10.80
2023-04-05T05:13:28.291Z,10.97
2023-04-05T05:15:55.162Z,10.43
2023-04-05T05:18:21.952Z,10.70
2023-04-05T05:20:51.918Z,10.93
2023-04-05T05:23:18.757Z,10.77
2023-04-05T05:25:45.558Z,10.60
2023-04-05T05:28:12.279Z,10.73
2023-04-05T05:30:39.227Z,11.20
2023-04-05T05:33:06.238Z,11.20
2023-04-05T05:35:33.082Z,11.90
2023-04-05T05:37:59.861Z,11.80
2023-04-05T05:40:26.964Z,11.37
2023-04-05T05:42:53.689Z,11.90
2023-04-05T05:45:20.657Z,11.43
2023-04-05T05:47:47.504Z,11.30
2023-04-05T05:50:16.488Z,12.27
2023-04-05T05:52:43.318Z,11.33
2023-04-05T05:55:10.191Z,12.00
2023-04-05T05:57:38.855Z,11.87
2023-04-05T06:00:09.590Z,12.20
2023-04-05T06:02:36.932Z,11.83
2023-04-05T06:05:04.047Z,12.30
2023-04-05T06:07:30.981Z,12.53
2023-04-05T06:09:57.768Z,12.20
2023-04-05T06:12:25.301Z,13.13
2023-04-05T06:14:53.399Z,11.43
2023-04-05T06:17:20.357Z,12.17
2023-04-05T06:19:47.076Z,12.33
2023-04-05T06:22:13.906Z,11.83
2023-04-05T06:24:40.703Z,13.90
2023-04-05T06:27:08.322Z,11.67
2023-04-05T06:29:35.129Z,12.57
2023-04-05T06:32:02.332Z,12.33
2023-04-05T06:34:29.248Z,12.47
2023-04-05T06:36:56.338Z,11.30
2023-04-05T06:39:23.059Z,12.00
2023-04-05T06:41:49.954Z,11.73
2023-04-05T06:44:16.705Z,10.97
2023-04-05T06:46:43.457Z,11.63
2023-04-05T06:49:10.369Z,10.40
2023-04-05T06:51:37.205Z,10.20
2023-04-05T06:54:04.159Z,9.97
2023-04-05T06:56:30.929Z,10.27
2023-04-05T06:58:59.654Z,10.27
2023-04-05T07:01:27.505Z,9.30
2023-04-05T07:03:54.579Z,9.23
2023-04-05T07:06:23.844Z,8.77
2023-04-05T07:08:51.000Z,9.50
2023-04-05T07:11:17.821Z,10.63
2023-04-05T07:13:44.657Z,10.43
2023-04-05T07:16:11.468Z,9.63
2023-04-05T07:18:38.291Z,9.83
2023-04-05T07:21:05.105Z,9.20
2023-04-05T07:23:31.856Z,9.30
2023-04-05T07:26:05.934Z,9.20
2023-04-05T07:28:35.407Z,9.47
2023-04-05T07:31:03.956Z,10.00
2023-04-05T07:33:30.955Z,9.27
2023-04-05T07:35:58.123Z,9.73
2023-04-05T07:38:29.245Z,9.93
2023-04-05T07:40:56.433Z,9.17
2023-04-05T07:43:25.619Z,10.17
2023-04-05T07:45:53.773Z,9.33
2023-04-05T07:48:21.023Z,10.70
2023-04-05T07:50:47.957Z,10.20
2023-04-05T07:53:15.195Z,11.93
2023-04-05T07:55:42.270Z,10.23
2023-04-05T07:58:09.354Z,11.20
2023-04-05T08:00:37.115Z,11.43
2023-04-05T08:03:04.850Z,11.47
2023-04-05T08:05:31.797Z,12.60
2023-04-05T08:07:58.669Z,13.40
2023-04-05T08:10:25.792Z,12.57
2023-04-05T08:12:53.036Z,13.30
2023-04-05T08:15:19.818Z,12.77
2023-04-05T08:17:46.813Z,14.87
2023-04-05T08:20:13.687Z,13.80
2023-04-05T08:22:50.593Z,14.20
2023-04-05T08:25:17.545Z,13.87
2023-04-05T08:27:44.414Z,14.53
2023-04-05T08:30:11.789Z,12.63
2023-04-05T08:32:38.686Z,13.57
2023-04-05T08:35:06.079Z,14.30
2023-04-05T08:37:36.066Z,13.67
2023-04-05T08:40:04.756Z,14.10
2023-04-05T08:43:01.653Z,14.23
2023-04-05T08:45:29.455Z,15.00
2023-04-05T08:47:56.609Z,13.37
2023-04-05T08:50:24.849Z,14.67
2023-04-05T08:52:52.404Z,13.60
2023-04-05T08:55:19.232Z,13.87
2023-04-05T08:57:51.980Z,13.10
2023-04-05T09:00:19.633Z,13.37
2023-04-05T09:02:51.250Z,13.70
2023-04-05T09:05:19.176Z,12.80
2023-04-05T09:07:47.983Z,12.97
2023-04-05T09:10:15.290Z,14.10
2023-04-05T09:12:43.642Z,13.23
2023-04-05T09:15:11.416Z,15.27
2023-04-05T09:17:43.470Z,14.17
2023-04-05T09:20:10.470Z,12.57
2023-04-05T09:22:45.651Z,12.67
2023-04-05T09:25:39.493Z,13.77
2023-04-05T09:28:10.111Z,12.97
2023-04-05T09:30:37.470Z,11.50
2023-04-05T09:33:07.699Z,13.07
2023-04-05T09:35:37.138Z,12.13
2023-04-05T09:38:05.572Z,12.43
2023-04-05T09:40:47.066Z,12.90
2023-04-05T09:43:34.809Z,12.20
2023-04-05T09:46:01.719Z,10.93
2023-04-05T09:48:51.518Z,12.07
2023-04-05T09:51:18.997Z,11.27
2023-04-05T09:54:08.517Z,11.00
2023-04-05T09:56:38.099Z,11.20
2023-04-05T09:59:12.660Z,10.80
2023-04-05T10:01:44.058Z,10.30
2023-04-05T10:04:11.155Z,9.83
2023-04-05T10:06:40.274Z,10.27
2023-04-05T10:09:08.725Z,10.57
2023-04-05T10:11:36.781Z,10.10
2023-04-05T10:14:06.157Z,12.07
2023-04-05T10:16:49.124Z,10.73
2023-04-05T10:19:48.350Z,10.07
2023-04-05T10:22:22.907Z,10.20
2023-04-05T10:24:57.949Z,9.93
2023-04-05T10:27:35.612Z,9.83
2023-04-05T10:30:09.177Z,9.60
2023-04-05T10:32:57.883Z,10.20
2023-04-05T10:35:46.545Z,10.53
2023-04-05T10:38:26.809Z,9.30
2023-04-05T10:41:19.891Z,10.23
2023-04-05T10:43:48.392Z,10.17
2023-04-05T10:46:21.044Z,10.80
2023-04-05T10:49:11.977Z,10.03
2023-04-05T10:51:39.686Z,10.30
2023-04-05T10:54:10.070Z,10.90
2023-04-05T10:56:39.006Z,9.90
2023-04-05T10:59:07.794Z,9.60
2023-04-05T11:01:35.799Z,9.17
2023-04-05T11:04:13.556Z,10.43
2023-04-05T11:06:41.357Z,9.03
2023-04-05T11:09:20.351Z,10.43
2023-04-05T11:11:51.209Z,10.23
2023-04-05T11:14:33.995Z,10.50
2023-04-05T11:17:00.997Z,10.97
2023-04-05T11:19:49.561Z,10.47
2023-04-05T11:22:28.262Z,10.87
2023-04-05T11:24:58.050Z,10.40
2023-04-05T11:27:37.647Z,11.80
2023-04-05T11:30:06.499Z,10.97
2023-04-05T11:32:45.772Z,11.93
2023-04-05T11:35:18.262Z,12.67
2023-04-05T11:38:08.735Z,10.27
2023-04-05T11:40:40.457Z,11.80
2023-04-05T11:43:11.405Z,11.23
2023-04-05T11:45:41.181Z,10.10
2023-04-05T11:48:09.039Z,11.77
2023-04-05T11:50:42.071Z,10.90
2023-04-05T11:53:13.448Z,11.27
2023-04-05T11:55:42.259Z,11.07
2023-04-05T11:58:17.456Z,10.13
2023-04-05T12:00:49.184Z,11.30
2023-04-05T12:03:17.228Z,12.20
2023-04-05T12:05:48.511Z,11.47
2023-04-05T12:08:15.479Z,11.17
2023-04-05T12:10:42.319Z,10.83
2023-04-05T12:13:09.170Z,11.33
2023-04-05T12:15:41.115Z,13.50
2023-04-05T12:18:14.470Z,13.17
2023-04-05T12:20:41.789Z,11.63
2023-04-05T12:23:09.545Z,11.90
2023-04-05T12:25:38.954Z,11.90
2023-04-05T12:28:09.225Z,11.93
2023-04-05T12:33:33.108Z,11.10
2023-04-05T12:36:05.722Z,12.03
2023-04-05T12:38:32.658Z,13.40
2023-04-05T12:41:04.450Z,14.53
2023-04-05T12:43:41.836Z,15.43
2023-04-05T12:46:16.619Z,16.07
2023-04-05T12:48:43.522Z,14.93
2023-04-05T12:51:16.969Z,13.77
2023-04-05T12:53:48.168Z,14.30
2023-04-05T12:56:16.303Z,13.40
2023-04-05T12:58:43.695Z,14.63
2023-04-05T13:01:10.772Z,13.00
2023-04-05T13:03:39.223Z,13.90
2023-04-05T13:06:06.305Z,13.63
2023-04-05T13:08:33.316Z,14.83
2023-04-05T13:11:01.263Z,14.77
2023-04-05T13:13:28.037Z,13.67
2023-04-05T13:15:54.853Z,14.30
2023-04-05T13:18:21.701Z,11.73
2023-04-05T13:20:48.425Z,13.53
2023-04-05T13:23:15.318Z,13.90
2023-04-05T13:25:43.678Z,13.63
2023-04-05T13:28:11.039Z,12.53
2023-04-05T13:30:38.187Z,10.30
2023-04-05T13:33:05.335Z,10.70
2023-04-05T13:35:32.894Z,11.40
2023-04-05T13:38:03.987Z,11.23
2023-04-05T13:40:32.224Z,12.33
2023-04-05T13:42:59.162Z,10.87
2023-04-05T13:45:26.362Z,10.43
2023-04-05T13:47:53.360Z,8.93
2023-04-05T13:50:20.543Z,10.43
2023-04-05T13:52:47.298Z,10.07
2023-04-05T13:55:14.594Z,10.00
2023-04-05T13:57:41.333Z,10.20
2023-04-05T14:00:09.139Z,9.70
2023-04-05T14:02:36.346Z,11.13
2023-04-05T14:05:03.487Z,9.43
2023-04-05T14:07:30.506Z,9.27
2023-04-05T14:09:57.746Z,9.73
2023-04-05T14:12:24.951Z,8.03
2023-04-05T14:14:53.355Z,8.27
2023-04-05T14:17:21.509Z,8.83
2023-04-05T14:19:48.296Z,8.80
2023-04-05T14:22:15.708Z,8.37
2023-04-05T14:24:43.665Z,8.50
2023-04-05T14:27:10.710Z,8.70
2023-04-05T14:29:37.528Z,8.40
2023-04-05T14:32:04.726Z,8.30
2023-04-05T14:34:31.665Z,9.43
2023-04-05T14:37:00.140Z,9.60
2023-04-05T14:39:26.913Z,9.90
2023-04-05T14:41:54.195Z,7.60
2023-04-05T14:44:21.001Z,7.77
2023-04-05T14:46:49.575Z,7.37
2023-04-05T14:49:18.655Z,7.87
2023-04-05T14:51:45.595Z,8.80
2023-04-05T14:54:13.853Z,8.57
2023-04-05T14:56:40.721Z,9.00
2023-04-05T14:59:08.104Z,9.00
2023-04-05T15:01:35.886Z,7.83
2023-04-05T15:04:03.536Z,8.40
2023-04-05T15:06:30.501Z,9.10
2023-04-05T15:08:57.572Z,8.60
2023-04-05T15:11:24.648Z,8.67
2023-04-05T15:13:51.684Z,9.10
2023-04-05T15:16:19.598Z,9.83
2023-04-05T15:18:47.425Z,9.60
2023-04-05T15:21:14.320Z,10.17
2023-04-05T15:23:43.661Z,9.90
2023-04-05T15:26:10.939Z,10.10
2023-04-05T15:28:37.716Z,10.60
2023-04-05T15:31:04.522Z,12.87
2023-04-05T15:33:31.750Z,11.73
2023-04-05T15:36:01.683Z,11.77
2023-04-05T15:38:28.521Z,11.50
2023-04-05T15:40:56.933Z,11.37
2023-04-05T15:43:26.473Z,11.43
2023-04-05T15:45:53.229Z,11.77
2023-04-05T15:48:20.323Z,13.93
2023-04-05T15:50:47.378Z,13.03
2023-04-05T15:53:14.251Z,12.07
2023-04-05T15:55:41.108Z,13.00
2023-04-05T15:58:08.063Z,13.70
2023-04-05T16:00:34.991Z,14.37
2023-04-05T16:03:02.705Z,14.07
2023-04-05T16:05:29.571Z,14.13
2023-04-05T16:07:56.446Z,14.17
2023-04-05T16:10:23.332Z,14.10
2023-04-05T16:12:54.641Z,13.37
2023-04-05T16:15:21.607Z,11.83
2023-04-05T16:17:50.727Z,11.73
2023-04-05T16:20:17.689Z,12.13
2023-04-05T16:22:45.704Z,11.43
2023-04-05T16:25:12.671Z,12.30
2023-04-05T16:27:39.649Z,13.33
2023-04-05T16:30:07.491Z,12.10
2023-04-05T16:32:34.353Z,13.63
2023-04-05T16:35:02.597Z,13.13
2023-04-05T16:37:29.524Z,14.67
2023-04-05T16:39:56.531Z,13.40
2023-04-05T16:42:23.384Z,13.80
2023-04-05T16:44:50.660Z,13.63
2023-04-05T16:47:17.650Z,13.30
2023-04-05T16:49:44.455Z,15.47
2023-04-05T16:52:11.313Z,16.00
2023-04-05T16:54:38.208Z,13.93
2023-04-05T16:57:05.329Z,13.80
2023-04-05T16:59:32.205Z,15.20
2023-04-05T17:01:59.186Z,13.50
2023-04-05T17:04:26.310Z,15.87
2023-04-05T17:06:53.244Z,13.77
2023-04-05T17:09:20.061Z,15.50
2023-04-05T17:11:46.972Z,15.20
2023-04-05T17:14:13.858Z,16.00
2023-04-05T17:16:40.983Z,15.40
2023-04-05T17:19:07.776Z,15.70
2023-04-05T17:21:35.554Z,16.13
2023-04-05T17:24:02.517Z,16.57
2023-04-05T17:26:30.134Z,18.00
2023-04-05T17:28:56.973Z,16.33
2023-04-05T17:31:24.003Z,18.30
2023-04-05T17:33:51.048Z,18.80
2023-04-05T17:36:17.998Z,18.07
2023-04-05T17:38:44.976Z,19.90
2023-04-05T17:41:11.865Z,18.60
2023-04-05T17:43:38.812Z,18.97
2023-04-05T17:46:05.765Z,17.33
2023-04-05T17:48:33.102Z,19.00
2023-04-05T17:51:05.439Z,20.83
2023-04-05T17:53:32.177Z,18.33
2023-04-05T17:56:00.987Z,20.30
2023-04-05T17:58:32.604Z,20.03
2023-04-05T18:00:59.710Z,21.50
2023-04-05T18:03:27.612Z,20.07
2023-04-05T18:05:55.741Z,19.50
2023-04-05T18:08:23.725Z,19.07
2023-04-05T18:10:56.428Z,21.13
2023-04-05T18:13:23.330Z,22.23
2023-04-05T18:15:57.460Z,22.93
2023-04-05T18:18:25.198Z,21.20
2023-04-05T18:20:53.812Z,20.87
2023-04-05T18:23:27.301Z,21.43
2023-04-05T18:25:54.930Z,21.77
2023-04-05T18:28:23.541Z,20.90
2023-04-05T18:30:51.785Z,20.47
2023-04-05T18:33:18.834Z,22.73
2023-04-05T18:35:50.096Z,20.37
2023-04-05T18:38:17.093Z,22.03
2023-04-05T18:40:44.022Z,21.23
2023-04-05T18:43:11.159Z,22.07
2023-04-05T18:45:41.230Z,21.37
2023-04-05T18:48:08.240Z,19.73
2023-04-05T18:50:35.969Z,21.23
2023-04-05T18:53:02.952Z,20.60
2023-04-05T18:55:29.766Z,21.43
2023-04-05T18:57:56.910Z,20.83
2023-04-05T19:00:23.758Z,20.40
2023-04-05T19:02:50.705Z,22.43
2023-04-05T19:05:17.648Z,21.47
2023-04-05T19:07:44.516Z,20.97
2023-04-05T19:10:11.841Z,20.50
2023-04-05T19:12:38.806Z,20.60
2023-04-05T19:15:07.432Z,20.13
2023-04-05T19:17:34.369Z,20.50
2023-04-05T19:20:03.664Z,21.53
2023-04-05T19:22:30.923Z,21.87
2023-04-05T19:24:57.829Z,21.77
2023-04-05T19:27:24.570Z,21.83
2023-04-05T19:29:51.425Z,22.27
2023-04-05T19:32:18.344Z,21.53
2023-04-05T19:34:45.309Z,22.50
2023-04-05T19:37:12.220Z,21.47
2023-04-05T19:39:39.782Z,22.47
2023-04-05T19:42:09.108Z,22.77
2023-04-05T19:44:44.606Z,22.70
2023-04-05T19:47:11.485Z,23.77
2023-04-05T19:49:42.428Z,23.10
2023-04-05T19:52:14.254Z,22.33
2023-04-05T19:54:43.923Z,24.13
2023-04-05T19:57:13.533Z,25.07
2023-04-05T19:59:41.332Z,23.33
2023-04-05T20:02:38.155Z,23.80
2023-04-05T20:05:13.712Z,25.17
2023-04-05T20:07:40.514Z,24.23
2023-04-05T20:10:16.221Z,24.73
2023-04-05T20:12:43.159Z,24.90
2023-04-05T20:15:12.948Z,26.00
2023-04-05T20:17:45.689Z,27.13
2023-04-05T20:20:13.709Z,27.50
2023-04-05T20:22:40.519Z,28.73
2023-04-05T20:25:44.820Z,28.00
2023-04-05T20:28:38.114Z,27.63
2023-04-05T20:31:12.536Z,27.47
2023-04-05T20:33:56.297Z,29.17
2023-04-05T20:36:35.159Z,30.23
2023-04-05T20:39:04.362Z,27.80
2023-04-05T20:41:32.457Z,28.20
2023-04-05T20:44:00.241Z,28.20
2023-04-05T20:46:28.793Z,29.27
2023-04-05T20:48:57.462Z,28.77
2023-04-05T20:51:24.670Z,27.03
2023-04-05T20:53:51.612Z,28.77
2023-04-05T20:56:18.493Z,28.77
2023-04-05T20:58:45.666Z,31.10
2023-04-05T21:01:13.942Z,31.57
2023-04-05T21:03:42.395Z,28.87
2023-04-05T21:06:10.342Z,29.57
2023-04-05T21:08:38.930Z,31.30
2023-04-05T21:11:07.165Z,28.97
2023-04-05T21:13:34.810Z,30.37
2023-04-05T21:16:01.871Z,31.53
2023-04-05T21:18:28.737Z,30.47
2023-04-05T21:20:57.039Z,30.77
2023-04-05T21:23:28.590Z,30.47
2023-04-05T21:25:58.570Z,31.53
2023-04-05T21:28:26.916Z,29.33
2023-04-05T21:30:57.224Z,30.03
2023-04-05T21:33:24.264Z,30.87
2023-04-05T21:35:51.192Z,31.00
2023-04-05T21:38:18.500Z,30.40
2023-04-05T21:40:45.353Z,27.63
2023-04-05T21:43:14.861Z,27.87
2023-04-05T21:45:43.098Z,28.87
2023-04-05T21:48:10.333Z,28.73
2023-04-05T21:50:37.642Z,28.70
2023-04-05T21:53:07.375Z,28.93
2023-04-05T21:55:34.468Z,30.10
2023-04-05T21:58:01.410Z,28.10
2023-04-05T22:00:28.409Z,30.33
2023-04-05T22:02:55.424Z,28.93
2023-04-05T22:05:36.422Z,29.70
2023-04-05T22:08:05.842Z,28.57
2023-04-05T22:10:33.074Z,28.77
2023-04-05T22:12:59.839Z,27.80
2023-04-05T22:15:26.634Z,28.33
2023-04-05T22:17:55.003Z,27.63
2023-04-05T22:20:22.117Z,31.17
2023-04-05T22:22:48.912Z,29.73
2023-04-05T22:25:15.945Z,30.93
2023-04-05T22:27:42.956Z,29.50
2023-04-05T22:30:10.011Z,27.73
2023-04-05T22:32:38.031Z,27.80
2023-04-05T22:35:05.798Z,29.30
2023-04-05T22:37:35.938Z,29.73
2023-04-05T22:40:04.476Z,29.73
2023-04-05T22:42:31.691Z,29.37
2023-04-05T22:44:58.548Z,27.20
2023-04-05T22:47:27.288Z,27.80
2023-04-05T22:49:54.493Z,28.10
2023-04-05T22:52:21.467Z,27.23
2023-04-05T22:54:48.480Z,28.20
2023-04-05T22:57:16.666Z,27.00
2023-04-05T22:59:45.568Z,25.27
2023-04-05T23:02:12.526Z,26.03
2023-04-05T23:04:39.678Z,26.23
2023-04-05T23:07:06.509Z,27.63
2023-04-05T23:09:33.288Z,26.77
2023-04-05T23:12:00.687Z,24.13
2023-04-05T23:14:28.005Z,23.37
2023-04-05T23:16:54.795Z,27.60
2023-04-05T23:19:22.042Z,25.30
2023-04-05T23:21:50.243Z,24.47
2023-04-05T23:24:17.240Z,21.17
2023-04-05T23:26:44.025Z,24.10
2023-04-05T23:29:10.883Z,22.70
2023-04-05T23:31:39.388Z,23.60
2023-04-05T23:34:06.343Z,22.80
2023-04-05T23:36:33.165Z,21.27
2023-04-05T23:39:00.975Z,22.50
2023-04-05T23:41:27.950Z,22.50
2023-04-05T23:43:54.800Z,20.67
2023-04-05T23:46:22.109Z,21.10
2023-04-05T23:48:50.154Z,18.10
2023-04-05T23:51:17.593Z,19.37
2023-04-05T23:53:44.387Z,18.97
2023-04-05T23:56:11.414Z,16.50
2023-04-05T23:58:38.240Z,17.87
